Time;durP1;ratioP1;P1;durP2;ratioP2;P2;SDS_P1;SDS_P2;PMS_P1;PMS_P2;Temp;Humidity;BMP_temperature;BMP_pressure;BME280_temperature;BME280_humidity;BME280_pressure;Samples;Min_cycle;Max_cycle;Signal;HPM_P1;HPM_P2
2022/06/11 00:02:11;;;;;;;2.22;1.25;;;20.70;97.70;;;21.08;65.43;101516.72;5086555;29;20098;-70
2022/06/11 00:04:43;;;;;;;3.47;1.20;;;20.60;97.70;;;21.06;65.41;101516.72;5086754;29;20474;-70
2022/06/11 00:07:22;;;;;;;2.80;1.58;;;20.60;97.70;;;21.02;65.61;101522.88;5086851;29;20564;-71
2022/06/11 00:09:54;;;;;;;2.72;1.60;;;20.60;97.70;;;21.01;65.70;101522.88;5086518;29;20059;-70
2022/06/11 00:12:27;;;;;;;2.92;1.45;;;20.60;98.00;;;20.97;65.78;101524.63;5086533;29;20056;-70
2022/06/11 00:14:59;;;;;;;3.10;1.42;;;20.60;97.70;;;20.96;65.87;101527.25;5086563;29;20144;-70
2022/06/11 00:17:32;;;;;;;2.50;1.60;;;20.50;97.80;;;20.96;65.94;101525.50;5086772;29;20102;-71
2022/06/11 00:20:07;;;;;;;2.17;1.30;;;20.50;97.80;;;20.96;65.98;101530.78;5086338;29;20409;-70
2022/06/11 00:22:41;;;;;;;1.98;1.10;;;20.50;97.90;;;20.96;65.97;101528.16;5086429;29;20052;-70
2022/06/11 00:25:13;;;;;;;1.58;1.40;;;20.60;97.90;;;20.96;66.52;101527.25;5086208;29;20051;-70
2022/06/11 00:27:47;;;;;;;2.45;1.30;;;20.50;98.10;;;20.95;67.07;101536.09;5086546;29;20091;-70
2022/06/11 00:30:20;;;;;;;1.38;1.27;;;20.50;98.40;;;20.92;67.54;101538.72;5086007;29;20103;-70
2022/06/11 00:32:55;;;;;;;1.60;1.17;;;20.50;98.70;;;20.90;68.14;101546.66;5086051;29;20063;-70
2022/06/11 00:35:29;;;;;;;1.42;1.15;;;20.40;98.90;;;20.89;68.74;101539.59;5085830;29;20059;-70
2022/06/11 00:38:03;;;;;;;3.72;1.58;;;20.40;99.30;;;20.85;69.09;101536.03;5085990;29;20044;-71
2022/06/11 00:40:39;;;;;;;1.30;1.15;;;20.40;99.50;;;20.82;69.21;101538.69;5085766;29;20062;-70
2022/06/11 00:43:15;;;;;;;1.88;1.42;;;20.40;99.60;;;20.81;69.79;101534.28;5085958;29;20058;-70
2022/06/11 00:45:55;;;;;;;1.50;1.25;;;20.40;99.90;;;20.81;69.94;101528.09;5085774;29;20048;-70
2022/06/11 00:48:32;;;;;;;2.10;1.33;;;20.30;99.90;;;20.81;69.67;101528.09;5085698;29;20107;-70
2022/06/11 00:51:13;;;;;;;1.60;1.13;;;20.30;99.90;;;20.81;69.10;101528.97;5086308;29;20568;-70
2022/06/11 00:53:50;;;;;;;1.88;1.20;;;20.30;99.80;;;20.83;68.86;101536.94;5085825;29;20055;-70
2022/06/11 00:56:28;;;;;;;2.00;1.20;;;20.30;99.70;;;20.84;68.36;101531.63;5085270;29;20083;-70
2022/06/11 00:59:03;;;;;;;2.60;1.25;;;20.30;99.50;;;20.83;68.55;101527.22;5085160;29;20056;-70
2022/06/11 01:01:36;;;;;;;2.65;1.20;;;20.40;99.50;;;20.84;69.10;101528.97;5085381;29;20048;-70
2022/06/11 01:04:43;;;;;;;1.58;1.10;;;20.40;99.80;;;20.82;69.92;101525.44;5085616;29;20055;-70
2022/06/11 01:08:08;;;;;;;1.73;1.10;;;20.40;99.90;;;20.79;69.45;101525.41;5085680;29;20139;-70
2022/06/11 01:11:34;;;;;;;1.48;1.25;;;20.30;99.90;;;20.78;69.11;101522.75;5078597;29;20138;-71
2022/06/11 01:14:26;;;;;;;;;;;20.30;99.80;;;20.77;69.49;101527.19;5074510;29;20047;-70
2022/06/11 01:17:14;;;;;;;1.35;1.23;;;20.30;99.90;;;20.77;69.77;101526.31;5084885;29;19971;-70
2022/06/11 01:20:12;;;;;;;2.03;1.02;;;20.30;99.90;;;20.74;69.37;101521.88;5083354;29;20479;-70
2022/06/11 01:23:45;;;;;;;4.03;1.50;;;20.30;99.90;;;20.73;69.42;101520.09;5080467;29;20127;-70
2022/06/11 01:26:56;;;;;;;1.63;1.30;;;20.30;99.90;;;20.72;69.52;101523.63;5082209;29;20074;-70
2022/06/11 01:29:55;;;;;;;1.73;1.23;;;20.30;99.90;;;20.71;69.38;101521.84;5082999;29;20092;-70
2022/06/11 01:32:47;;;;;;;5.32;1.60;;;20.30;99.90;;;20.68;69.49;101521.84;5083284;29;20493;-70
2022/06/11 01:35:31;;;;;;;1.98;1.50;;;20.30;99.90;;;20.66;69.68;101520.94;5084956;29;20155;-70
2022/06/11 01:38:10;;;;;;;2.08;1.25;;;20.20;99.90;;;20.64;69.66;101520.06;5082893;29;20044;-70
2022/06/11 01:40:52;;;;;;;3.35;1.33;;;20.20;99.90;;;20.62;69.99;101516.53;5079725;29;20052;-70
2022/06/11 01:43:34;;;;;;;2.88;1.33;;;20.20;99.90;;;20.61;70.47;101520.06;5080747;29;20077;-70
2022/06/11 01:46:17;;;;;;;2.35;1.48;;;20.20;99.90;;;20.59;70.56;101516.50;5083026;29;20486;-70
2022/06/11 01:48:57;;;;;;;1.88;1.40;;;20.20;99.90;;;20.57;70.56;101521.78;5083178;29;20049;-70
2022/06/11 01:51:46;;;;;;;1.33;1.23;;;20.20;99.90;;;20.56;70.42;101516.50;5084879;29;20056;-70
2022/06/11 01:54:33;;;;;;;1.98;1.60;;;20.10;99.90;;;20.55;70.41;101520.91;5084753;29;20055;-70
2022/06/11 01:57:34;;;;;;;1.98;1.52;;;20.10;99.90;;;20.54;70.40;101512.97;5084977;29;20051;-70
2022/06/11 02:00:14;;;;;;;1.95;1.33;;;20.10;99.90;;;20.55;70.56;101517.38;5082635;29;20044;-70
2022/06/11 02:03:09;;;;;;;2.35;1.30;;;20.10;99.90;;;20.56;70.69;101519.16;5082893;29;20482;-70
2022/06/11 02:05:58;;;;;;;1.88;1.52;;;20.10;99.90;;;20.56;70.98;101522.69;5084881;29;20116;-70
2022/06/11 02:08:41;;;;;;;2.72;1.42;;;20.10;99.90;;;20.56;71.43;101519.16;5084053;29;20093;-70
2022/06/11 02:11:20;;;;;;;2.20;1.30;;;20.10;99.90;;;20.56;71.05;101521.78;5087408;29;20052;-70
2022/06/11 02:13:57;;;;;;;1.40;1.30;;;20.10;99.90;;;20.56;70.94;101524.44;5088422;29;20091;-70
2022/06/11 02:16:36;;;;;;;3.40;1.48;;;20.10;99.90;;;20.56;71.22;101532.38;5088506;29;20052;-70
2022/06/11 02:19:15;;;;;;;1.45;1.33;;;20.10;99.90;;;20.55;71.21;101531.50;5086390;29;20055;-70
2022/06/11 02:21:55;;;;;;;1.73;1.23;;;20.10;99.90;;;20.54;71.58;101527.09;5086636;29;20052;-71
2022/06/11 02:24:34;;;;;;;1.95;1.23;;;20.10;99.90;;;20.55;72.21;101527.97;5086826;29;20059;-70
2022/06/11 02:27:13;;;;;;;2.88;1.50;;;20.10;99.90;;;20.53;72.50;101529.69;5081148;29;20490;-70
2022/06/11 02:29:46;;;;;;;2.33;1.50;;;20.10;99.90;;;20.51;72.48;101536.75;5088363;29;20052;-70
2022/06/11 02:32:23;;;;;;;1.73;1.40;;;20.00;99.90;;;20.48;72.29;101529.69;5087853;29;20059;-70
2022/06/11 02:35:00;;;;;;;2.13;1.33;;;20.00;99.90;;;20.49;72.12;101535.88;5088345;29;20061;-70
2022/06/11 02:37:37;;;;;;;2.35;1.52;;;20.10;99.90;;;20.48;72.10;101529.69;5087978;29;20139;-70
2022/06/11 02:40:15;;;;;;;2.80;1.58;;;20.00;99.90;;;20.48;72.15;101539.41;5087608;29;20139;-70
2022/06/11 02:42:48;;;;;;;2.53;1.50;;;20.00;99.90;;;20.47;72.35;101537.59;5088068;29;20102;-70
2022/06/11 02:45:21;;;;;;;3.92;1.90;;;20.00;99.90;;;20.46;72.52;101527.91;5087763;29;20091;-70
2022/06/11 02:47:54;;;;;;;4.72;1.75;;;20.00;99.90;;;20.44;72.43;101537.56;5088108;29;20054;-70
2022/06/11 02:50:31;;;;;;;3.35;1.65;;;20.00;99.90;;;20.41;72.54;101537.53;5087449;29;20059;-70
2022/06/11 02:53:07;;;;;;;2.00;1.40;;;20.00;99.90;;;20.41;72.71;101537.53;5085313;29;20462;-70
2022/06/11 02:55:42;;;;;;;2.58;1.58;;;20.00;99.90;;;20.40;72.85;101533.13;5087567;29;20139;-70
2022/06/11 02:58:15;;;;;;;3.40;1.65;;;20.00;99.90;;;20.39;72.94;101539.31;5087349;29;20148;-70
2022/06/11 03:00:49;;;;;;;3.22;1.52;;;19.90;99.90;;;20.38;73.37;101541.06;5087786;29;20062;-70
2022/06/11 03:03:23;;;;;;;1.85;1.42;;;19.90;99.90;;;20.36;73.56;101542.81;5084890;29;20143;-70
2022/06/11 03:05:56;;;;;;;2.90;1.67;;;19.90;99.90;;;20.35;73.75;101537.53;5087650;29;20420;-70
2022/06/11 03:08:29;;;;;;;2.75;1.60;;;19.90;99.90;;;20.35;74.01;101540.19;5087636;29;20047;-70
2022/06/11 03:11:01;;;;;;;2.53;1.35;;;19.90;99.90;;;20.31;73.93;101537.50;5087503;29;20107;-70
2022/06/11 03:13:34;;;;;;;2.25;1.50;;;19.80;99.90;;;20.31;74.19;101537.50;5087126;29;20052;-70
2022/06/11 03:16:07;;;;;;;2.05;1.33;;;19.80;99.90;;;20.32;74.79;101543.66;5087231;29;20052;-71
2022/06/11 03:18:40;;;;;;;2.70;1.42;;;19.90;99.90;;;20.30;75.13;101540.13;5087279;29;20052;-70
2022/06/11 03:21:13;;;;;;;2.58;1.45;;;19.90;99.90;;;20.30;75.40;101550.72;5086453;29;20155;-70
2022/06/11 03:23:45;;;;;;;2.50;1.63;;;19.80;99.90;;;20.27;75.26;101548.03;5087035;29;20506;-70
2022/06/11 03:26:18;;;;;;;4.28;1.80;;;19.80;99.90;;;20.25;75.24;101550.69;5087212;29;20497;-70
2022/06/11 03:28:51;;;;;;;3.17;1.63;;;19.80;99.90;;;20.25;75.08;101553.34;5087415;29;20489;-70
2022/06/11 03:31:23;;;;;;;2.72;1.63;;;19.80;99.90;;;20.25;75.31;101553.34;5087127;29;20063;-70
2022/06/11 03:33:55;;;;;;;2.38;1.58;;;19.80;99.90;;;20.24;75.17;101555.97;5087449;29;20048;-70
2022/06/11 03:36:28;;;;;;;4.00;1.80;;;19.80;99.90;;;20.21;75.21;101551.56;5087426;29;20135;-70
2022/06/11 03:39:01;;;;;;;4.90;2.15;;;19.80;99.90;;;20.18;75.28;101555.94;5087064;29;20540;-70
2022/06/11 03:44:06;;;;;;;3.30;1.98;;;19.70;99.90;;;20.12;75.46;101551.47;5105863;29;20295;-69
2022/06/11 03:46:38;;;;;;;2.65;1.50;;;19.70;99.90;;;20.12;75.53;101558.53;5108208;29;20051;-69
2022/06/11 03:49:11;;;;;;;3.35;1.80;;;19.70;99.90;;;20.10;75.61;101552.34;5108036;29;20047;-69
2022/06/11 03:51:46;;;;;;;3.30;1.90;;;19.70;99.90;;;20.11;75.75;101554.13;5107767;29;20103;-69
2022/06/11 03:54:19;;;;;;;3.20;1.70;;;19.70;99.90;;;20.06;75.83;101559.34;5107586;29;20143;-69
2022/06/11 03:56:52;;;;;;;2.95;1.60;;;19.70;99.90;;;20.06;75.83;101562.00;5107690;29;20401;-69
2022/06/11 03:59:24;;;;;;;4.28;1.90;;;19.70;99.90;;;20.04;75.99;101563.75;5107394;29;20051;-69
2022/06/11 04:01:56;;;;;;;4.03;2.15;;;19.60;99.90;;;20.04;76.14;101563.75;5107127;29;20147;-69
2022/06/11 04:04:28;;;;;;;3.65;1.77;;;19.70;99.90;;;20.05;76.21;101570.81;5107424;29;20051;-69
2022/06/11 04:07:02;;;;;;;2.83;2.05;;;19.60;99.90;;;20.05;76.29;101568.19;5107610;29;20054;-69
2022/06/11 04:09:39;;;;;;;3.67;1.90;;;19.60;99.90;;;20.05;76.71;101576.13;5107460;29;20074;-69
2022/06/11 04:12:15;;;;;;;2.75;1.67;;;19.60;99.90;;;20.04;76.65;101577.00;5107052;29;20055;-69
2022/06/11 04:14:49;;;;;;;3.30;1.65;;;19.60;99.90;;;20.03;76.70;101576.13;5107553;29;20070;-69
2022/06/11 04:17:28;;;;;;;2.40;1.80;;;19.60;99.90;;;20.03;76.82;101583.16;5107343;29;20051;-69
2022/06/11 04:20:00;;;;;;;2.10;1.63;;;19.60;99.90;;;20.02;77.05;101586.69;5106616;29;20066;-69
2022/06/11 04:22:34;;;;;;;3.38;1.90;;;19.60;99.90;;;20.03;77.05;101586.69;5106936;29;20061;-69
2022/06/11 04:25:07;;;;;;;4.55;2.13;;;19.60;99.90;;;20.02;77.05;101587.59;5106924;29;20077;-69
2022/06/11 04:27:40;;;;;;;4.65;2.13;;;19.60;99.90;;;20.02;76.95;101586.69;5106859;29;20052;-69
2022/06/11 04:30:15;;;;;;;3.75;1.90;;;19.60;99.90;;;20.01;77.15;101584.91;5106865;29;20065;-69
2022/06/11 04:32:47;;;;;;;3.97;2.20;;;19.60;99.90;;;20.01;77.12;101584.91;5106641;29;20055;-69
2022/06/11 04:35:20;;;;;;;4.50;1.92;;;19.60;99.90;;;20.01;77.28;101584.91;5106922;29;20047;-69
2022/06/11 04:37:53;;;;;;;3.85;2.03;;;19.60;99.90;;;19.99;77.34;101584.00;5106211;29;20052;-69
2022/06/11 04:40:25;;;;;;;3.97;1.92;;;19.60;99.90;;;19.99;77.43;101594.59;5106622;29;20061;-69
2022/06/11 04:42:57;;;;;;;4.72;2.00;;;19.60;99.90;;;20.02;77.35;101592.00;5117385;29;20066;-69
2022/06/11 04:45:30;;;;;;;3.40;1.83;;;19.60;99.90;;;20.04;77.47;101588.47;5126749;29;20481;-69
2022/06/11 04:48:02;;;;;;;2.80;2.13;;;19.60;99.90;;;20.05;77.15;101590.25;5126121;29;20057;-68
2022/06/11 04:50:35;;;;;;;3.92;1.83;;;19.70;99.90;;;20.05;77.14;101586.72;5126529;29;20082;-69
2022/06/11 04:53:10;;;;;;;3.03;2.25;;;19.60;99.90;;;20.05;77.16;101587.59;5125861;29;20138;-69
2022/06/11 04:55:42;;;;;;;3.10;1.98;;;19.60;99.90;;;20.06;77.11;101584.06;5126187;29;20053;-69
2022/06/11 04:58:14;;;;;;;2.63;1.83;;;19.60;99.90;;;20.07;77.15;101582.31;5126193;29;20047;-69
2022/06/11 05:00:46;;;;;;;3.03;1.80;;;19.70;99.90;;;20.09;77.30;101593.81;5125969;29;20058;-69
2022/06/11 05:03:19;;;;;;;3.30;1.83;;;19.70;99.90;;;20.13;77.28;101595.59;5125859;29;20053;-68
2022/06/11 05:05:51;;;;;;;3.60;1.77;;;19.70;99.90;;;20.17;77.21;101593.88;5126126;29;20130;-69
2022/06/11 05:08:25;;;;;;;2.85;1.98;;;19.70;99.90;;;20.21;76.99;101593.00;5126036;29;20496;-69
2022/06/11 05:10:57;;;;;;;2.28;1.63;;;19.80;99.90;;;20.25;76.74;101589.50;5125799;29;20051;-69
2022/06/11 05:13:29;;;;;;;5.72;1.98;;;19.80;99.90;;;20.29;76.53;101594.84;5126367;29;20143;-69
2022/06/11 05:16:02;;;;;;;2.95;1.85;;;19.80;99.90;;;20.30;76.22;101588.69;5125932;29;20428;-69
2022/06/11 05:18:35;;;;;;;2.55;2.13;;;19.80;99.90;;;20.33;76.19;101596.63;5125979;29;20408;-69
2022/06/11 05:21:07;;;;;;;3.05;1.92;;;19.90;99.90;;;20.39;76.18;101593.16;5125751;29;20047;-69
2022/06/11 05:23:41;;;;;;;3.85;1.92;;;19.90;99.90;;;20.45;76.42;101597.63;5126049;29;20420;-69
2022/06/11 05:26:17;;;;;;;5.88;2.00;;;20.00;99.90;;;20.49;76.03;101604.75;5126051;29;20134;-69
2022/06/11 05:28:50;;;;;;;3.15;1.83;;;20.00;99.90;;;20.55;75.80;101604.78;5126102;29;20407;-69
2022/06/11 05:31:22;;;;;;;2.85;1.40;;;20.10;99.90;;;20.63;75.30;101605.72;5125644;29;20055;-69
2022/06/11 05:33:54;;;;;;;2.55;1.70;;;20.10;99.90;;;20.75;75.31;101610.19;5126050;29;20050;-69
2022/06/11 05:36:26;;;;;;;3.00;1.80;;;20.20;99.90;;;20.89;75.21;101615.56;5126307;29;20059;-69
2022/06/11 05:39:00;;;;;;;3.13;1.77;;;20.30;99.90;;;20.98;74.24;101620.91;5125656;29;20049;-69
2022/06/11 05:41:32;;;;;;;3.92;1.77;;;20.40;99.90;;;21.05;73.56;101618.28;5125978;29;20518;-69
2022/06/11 05:44:05;;;;;;;3.28;1.80;;;20.50;99.90;;;21.06;72.84;101609.50;5128084;28;20469;-73
2022/06/11 05:46:37;;;;;;;2.13;1.80;;;20.50;99.90;;;21.06;72.54;101608.56;5129342;29;20069;-69
2022/06/11 05:49:16;;;;;;;2.90;1.77;;;20.50;99.90;;;21.03;72.42;101608.56;5128743;29;20427;-69
2022/06/11 05:51:53;;;;;;;2.72;1.63;;;20.60;99.90;;;21.03;72.42;101608.56;5128825;29;20055;-69
2022/06/11 05:54:32;;;;;;;3.60;1.83;;;20.50;99.90;;;20.98;72.57;101599.72;5128798;29;20043;-69
2022/06/11 05:57:06;;;;;;;3.03;1.67;;;20.50;99.90;;;20.97;72.74;101608.53;5128429;29;20057;-69
2022/06/11 05:59:44;;;;;;;2.35;1.75;;;20.50;99.90;;;20.97;72.81;101620.03;5128618;29;20055;-68
2022/06/11 06:02:23;;;;;;;3.30;1.63;;;20.50;99.90;;;20.99;72.87;101617.38;5128211;29;20059;-69
2022/06/11 06:04:56;;;;;;;3.55;1.75;;;20.50;99.90;;;20.99;72.94;101607.66;5128541;29;20055;-69
2022/06/11 06:07:28;;;;;;;2.60;1.50;;;20.50;99.90;;;21.02;73.02;101607.69;5127859;29;20062;-69
2022/06/11 06:10:01;;;;;;;3.83;2.03;;;20.50;99.90;;;21.02;73.25;101604.16;5127891;29;20514;-69
2022/06/11 06:12:35;;;;;;;3.40;1.63;;;20.50;99.90;;;20.98;72.92;101602.34;5128286;29;20542;-74
2022/06/11 06:15:12;;;;;;;4.05;2.08;;;20.50;99.90;;;20.93;72.99;101602.34;5128535;29;20055;-74
2022/06/11 06:17:45;;;;;;;2.63;1.70;;;20.50;99.90;;;20.95;73.11;101608.53;5128025;29;20047;-74
2022/06/11 06:20:20;;;;;;;3.85;1.83;;;20.50;99.90;;;20.98;73.26;101605.88;5127782;29;20047;-74
2022/06/11 06:22:52;;;;;;;4.20;1.73;;;20.50;99.90;;;21.04;73.37;101610.34;5127585;29;20055;-74
2022/06/11 06:25:26;;;;;;;3.83;1.45;;;20.50;99.90;;;21.08;73.30;101609.50;5127920;29;20051;-74
2022/06/11 06:27:58;;;;;;;3.65;1.80;;;20.60;99.90;;;21.12;73.22;101613.91;5127780;29;20488;-74
2022/06/11 06:30:30;;;;;;;3.35;1.80;;;20.60;99.90;;;21.12;73.12;101614.78;5127407;29;20409;-74
2022/06/11 06:33:02;;;;;;;4.45;2.00;;;20.60;99.90;;;21.16;72.96;101620.13;5127927;29;20112;-74
2022/06/11 06:35:34;;;;;;;3.88;1.73;;;20.70;99.90;;;21.19;72.57;101615.72;5127522;29;20166;-72
2022/06/11 06:38:07;;;;;;;4.32;1.70;;;20.70;99.90;;;21.26;72.30;101619.28;5127589;29;20556;-72
2022/06/11 06:40:42;;;;;;;2.72;1.80;;;20.70;99.90;;;21.33;72.17;101622.00;5127204;29;20054;-72
2022/06/11 06:43:14;;;;;;;2.35;1.83;;;20.80;99.90;;;21.42;71.50;101626.44;5127347;29;20063;-72
2022/06/11 06:45:47;;;;;;;3.50;1.60;;;20.80;99.90;;;21.49;70.60;101628.22;5127327;29;20073;-67
2022/06/11 06:48:19;;;;;;;2.28;1.50;;;20.90;99.90;;;21.60;69.90;101631.81;5126840;29;20051;-68
2022/06/11 06:50:52;;;;;;;2.85;1.38;;;21.00;99.90;;;21.73;68.94;101632.72;5127090;29;20431;-67
2022/06/11 06:53:25;;;;;;;2.40;1.33;;;21.10;99.90;;;21.86;68.75;101636.28;5126968;29;20053;-67
2022/06/11 06:55:59;;;;;;;1.05;1.02;;;21.20;99.90;;;21.98;67.98;101635.44;5125930;28;20492;-67
2022/06/11 06:58:31;;;;;;;3.72;1.42;;;21.30;99.90;;;22.10;68.08;101638.09;5126852;29;20051;-68
2022/06/11 07:01:05;;;;;;;4.05;1.70;;;21.40;99.90;;;22.18;67.63;101642.56;5127019;29;20098;-68
2022/06/11 07:03:37;;;;;;;1.88;1.50;;;21.50;99.90;;;22.26;67.29;101642.53;5127005;29;20047;-67
2022/06/11 07:06:09;;;;;;;5.78;1.65;;;21.60;99.90;;;22.35;66.56;101641.66;5126950;29;20051;-68
2022/06/11 07:08:41;;;;;;;2.78;1.73;;;21.60;99.90;;;22.43;66.49;101640.78;5126752;29;20378;-67
2022/06/11 07:11:14;;;;;;;4.05;1.65;;;21.70;99.90;;;22.52;66.46;101644.31;5127025;29;20053;-68
2022/06/11 07:13:47;;;;;;;2.85;1.67;;;21.80;99.90;;;22.61;66.33;101644.28;5127123;29;20071;-68
2022/06/11 07:16:24;;;;;;;7.03;1.83;;;21.90;99.90;;;22.70;65.87;101646.94;5126971;29;20048;-68
2022/06/11 07:19:00;;;;;;;5.75;1.90;;;21.90;99.90;;;22.76;65.08;101649.59;5126646;29;20073;-69
2022/06/11 07:21:42;;;;;;;2.80;1.48;;;22.00;99.60;;;22.84;65.50;101639.81;5126763;29;20050;-70
2022/06/11 07:24:18;;;;;;;2.75;1.50;;;22.00;99.70;;;22.93;65.40;101639.81;5115543;29;20043;-70
2022/06/11 07:26:56;;;;;;;2.85;1.30;;;22.10;99.70;;;23.02;64.93;101637.16;5106851;29;20051;-70
2022/06/11 07:29:32;;;;;;;2.90;1.40;;;22.30;99.60;;;23.11;64.31;101638.88;5111605;29;20051;-69
2022/06/11 07:32:13;;;;;;;2.65;1.40;;;22.30;99.30;;;23.17;63.95;101644.19;5118777;29;20480;-70
2022/06/11 07:34:45;;;;;;;2.08;1.25;;;22.40;99.10;;;23.25;63.45;101642.38;5126362;29;20094;-70
2022/06/11 07:37:18;;;;;;;5.43;1.60;;;22.50;98.90;;;23.35;63.03;101647.66;5126397;29;20138;-70
2022/06/11 07:39:50;;;;;;;2.83;1.45;;;22.50;98.70;;;23.42;62.58;101642.31;5126370;29;20054;-70
2022/06/11 07:42:24;;;;;;;1.67;1.20;;;22.60;98.40;;;23.55;62.48;101637.81;5122492;29;20069;-70
2022/06/11 07:44:56;;;;;;;3.42;1.55;;;22.70;98.40;;;23.64;61.43;101644.88;5124410;29;20556;-70
2022/06/11 07:50:19;;;;;;;3.10;1.40;;;22.80;97.40;;;23.70;60.12;101637.75;5125266;29;20054;-71
2022/06/11 07:52:52;;;;;;;2.90;1.40;;;22.90;96.90;;;23.70;60.26;101642.19;5125905;29;20053;-70
2022/06/11 07:55:25;;;;;;;2.45;1.30;;;22.90;96.90;;;23.72;60.14;101643.06;5126190;29;20126;-70
2022/06/11 07:58:00;;;;;;;2.67;1.50;;;22.90;96.90;;;23.79;60.32;101636.78;5125372;29;20378;-70
2022/06/11 08:00:36;;;;;;;2.20;1.40;;;22.90;97.00;;;23.81;60.32;101641.22;5119872;29;20062;-70
2022/06/11 08:03:08;;;;;;;2.90;1.35;;;23.00;96.80;;;23.92;60.42;101641.13;5106414;29;20071;-70
2022/06/11 08:05:41;;;;;;;2.65;1.25;;;23.10;96.80;;;24.02;60.29;101649.97;5105512;29;20047;-70
2022/06/11 08:08:14;;;;;;;2.53;1.30;;;23.10;96.70;;;24.17;60.02;101647.19;5112993;29;20456;-70
2022/06/11 08:10:47;;;;;;;3.15;1.60;;;23.20;97.10;;;24.27;58.60;101650.66;5125514;29;20047;-70
2022/06/11 08:13:20;;;;;;;3.60;1.40;;;23.40;96.10;;;24.35;58.34;101649.72;5125912;29;20106;-70
2022/06/11 08:15:53;;;;;;;2.55;1.33;;;23.40;95.90;;;24.48;58.35;101645.19;5125948;29;20058;-74
2022/06/11 08:18:26;;;;;;;2.92;1.23;;;23.50;95.80;;;24.59;57.74;101648.63;5124910;29;20051;-74
2022/06/11 08:20:59;;;;;;;4.25;1.40;;;23.60;95.40;;;24.72;56.63;101637.84;5125577;29;20389;-74
2022/06/11 08:23:32;;;;;;;3.35;1.38;;;23.70;94.80;;;24.89;55.90;101647.41;5125713;29;20079;-74
2022/06/11 08:26:04;;;;;;;2.83;1.20;;;23.80;94.40;;;25.04;55.21;101646.41;5125779;29;20395;-74
2022/06/11 08:28:38;;;;;;;2.63;1.40;;;23.90;93.90;;;25.22;54.17;101649.75;5125358;29;20069;-74
2022/06/11 08:31:10;;;;;;;4.55;1.35;;;24.00;93.30;;;25.30;53.73;101654.09;5125380;29;20070;-74
2022/06/11 08:33:42;;;;;;;2.53;1.25;;;24.20;92.90;;;25.46;54.37;101654.78;5125523;29;20412;-74
2022/06/11 08:36:14;;;;;;;3.28;1.20;;;24.30;93.30;;;25.59;53.36;101645.69;5125489;29;20047;-72
2022/06/11 08:38:46;;;;;;;2.40;1.17;;;24.40;92.70;;;25.70;53.02;101651.78;5125183;29;20493;-72
2022/06/11 08:41:24;;;;;;;2.58;1.13;;;24.50;92.20;;;26.00;52.32;101657.59;5125333;29;20051;-72
2022/06/11 08:44:02;;;;;;;3.90;1.33;;;24.70;91.90;;;26.72;50.66;101654.59;5125093;29;20051;-72
2022/06/11 08:46:38;;;;;;;2.15;1.20;;;25.10;91.60;;;27.48;49.35;101648.66;5125251;29;20090;-73
2022/06/11 08:49:17;;;;;;;3.17;1.40;;;25.60;91.00;;;29.24;46.21;101645.13;5124757;29;20053;-73
2022/06/11 08:51:56;;;;;;;2.25;1.10;;;26.60;90.50;;;31.51;40.71;101641.91;5128287;29;20061;-62
2022/06/11 08:54:33;;;;;;;2.03;1.10;;;28.00;84.20;;;33.51;36.51;101640.50;5129283;29;20489;-62
2022/06/11 08:57:15;;;;;;;1.17;0.80;;;29.40;77.00;;;35.24;32.98;101637.06;5130873;29;20055;-62
2022/06/11 09:00:11;;;;;;;2.53;0.80;;;30.80;71.00;;;36.42;30.52;101634.78;5128633;29;20051;-62
2022/06/11 09:03:11;;;;;;;2.17;1.05;;;31.90;65.20;;;37.14;29.11;101641.19;5122397;29;20051;-62
2022/06/11 09:06:14;;;;;;;2.70;0.80;;;32.70;62.20;;;37.79;28.11;101646.06;5120873;29;20106;-62
2022/06/11 09:09:01;;;;;;;1.25;0.77;;;33.30;60.10;;;38.55;26.80;101642.75;5107206;29;20058;-63
2022/06/11 09:12:07;;;;;;;2.83;0.80;;;33.90;57.90;;;39.08;26.01;101633.53;5115395;29;20058;-63
2022/06/11 09:15:21;;;;;;;1.67;1.00;;;34.40;56.70;;;39.30;25.67;101629.25;5107753;29;20061;-62
2022/06/11 09:18:29;;;;;;;1.77;0.70;;;34.70;55.80;;;39.37;25.62;101637.84;5091555;29;20055;-63
2022/06/11 09:21:18;;;;;;;0.75;0.55;;;34.80;55.00;;;39.21;24.90;101633.53;5107337;29;20058;-63
2022/06/11 09:24:37;;;;;;;2.13;0.80;;;34.80;53.50;;;38.92;24.97;101638.31;5106949;29;20058;-62
2022/06/11 09:27:19;;;;;;;1.00;0.60;;;34.80;53.00;;;38.04;25.94;101639.88;5103698;29;20060;-63
2022/06/11 09:30:04;;;;;;;1.83;0.70;;;34.40;53.00;;;36.72;27.57;101620.28;5107128;29;20479;-63
2022/06/11 09:32:46;;;;;;;1.88;0.88;;;33.90;53.70;;;35.61;28.81;101633.22;5109454;29;20048;-61
2022/06/11 09:35:24;;;;;;;2.05;0.77;;;33.20;54.60;;;34.83;30.32;101620.34;5127420;29;20051;-63
2022/06/11 09:38:11;;;;;;;1.67;0.60;;;32.70;55.30;;;33.97;31.73;101640.97;5127849;29;20051;-64
2022/06/11 09:40:49;;;;;;;2.70;0.70;;;32.30;56.60;;;33.33;33.07;101622.44;5107533;29;20047;-65
2022/06/11 09:43:38;;;;;;;1.85;0.90;;;31.80;57.60;;;32.68;34.10;101628.06;5144019;23;21173;-82
2022/06/11 09:46:18;;;;;;;1.50;0.95;;;31.30;58.00;;;32.33;34.99;101613.41;5142737;28;20057;-83
2022/06/11 09:49:15;;;;;;;0.85;0.70;;;31.00;59.30;;;31.90;35.24;101619.72;5141172;28;20053;-83
2022/06/11 09:51:55;;;;;;;1.73;0.93;;;30.70;59.20;;;31.70;35.20;101627.72;5129106;29;20063;-82
2022/06/11 09:54:52;;;;;;;1.83;0.70;;;30.40;59.30;;;31.36;35.45;101614.69;5128931;29;20134;-82
2022/06/11 09:57:36;;;;;;;1.20;0.82;;;30.10;59.20;;;30.82;35.98;101608.59;5129965;28;20051;-84
2022/06/11 10:00:19;;;;;;;1.40;0.80;;;29.80;59.60;;;30.63;37.66;101627.19;5128940;28;20051;-83
2022/06/11 10:03:00;;;;;;;1.02;0.60;;;29.60;61.70;;;30.65;37.46;101619.97;5129193;28;20055;-83
2022/06/11 10:05:42;;;;;;;0.57;0.50;;;29.50;61.50;;;30.64;36.82;101622.69;5128865;28;20051;-83
2022/06/11 10:08:27;;;;;;;0.68;0.60;;;29.40;60.90;;;30.54;36.66;101627.53;5128911;28;20055;-84
2022/06/11 10:10:59;;;;;;;0.95;0.60;;;29.40;60.50;;;30.31;36.67;101630.13;5129047;28;20548;-82
2022/06/11 10:13:41;;;;;;;0.70;0.65;;;29.10;60.30;;;29.96;37.51;101632.16;5129471;28;20079;-83
2022/06/11 10:16:29;;;;;;;0.50;0.50;;;28.90;60.80;;;29.63;38.40;101621.56;5129979;28;20055;-83
2022/06/11 10:19:16;;;;;;;0.73;0.57;;;28.70;61.60;;;29.35;38.91;101612.59;5129146;28;20052;-84
2022/06/11 10:21:58;;;;;;;1.02;0.70;;;28.40;62.20;;;29.05;39.30;101611.69;5129006;28;20061;-83
2022/06/11 10:24:34;;;;;;;2.45;0.90;;;28.10;62.70;;;28.81;40.06;101614.09;5129538;28;20047;-84
2022/06/11 10:27:13;;;;;;;1.02;0.63;;;27.90;63.70;;;28.75;41.37;101618.75;5129592;28;20051;-84
2022/06/11 10:29:50;;;;;;;0.95;0.70;;;27.70;65.00;;;28.77;41.66;101611.56;5129762;28;20061;-84
2022/06/11 10:32:29;;;;;;;1.10;0.85;;;27.70;65.80;;;28.65;41.98;101602.03;5145956;28;20046;-83
2022/06/11 10:35:06;;;;;;;0.93;0.60;;;27.60;65.80;;;28.71;42.29;101614.41;5149869;28;20506;-84
2022/06/11 10:37:44;;;;;;;1.10;0.90;;;27.70;66.60;;;28.91;42.47;101612.97;5142428;28;20055;-84
2022/06/11 10:40:25;;;;;;;1.00;0.80;;;27.80;67.00;;;28.90;41.45;101608.50;5146963;28;20051;-83
2022/06/11 10:43:05;;;;;;;1.13;0.82;;;27.80;65.90;;;28.85;41.63;101605.03;5145037;28;20493;-83
2022/06/11 10:45:37;;;;;;;4.97;1.48;;;27.80;66.00;;;28.92;42.14;101606.66;5153125;28;20051;-83
2022/06/11 10:48:19;;;;;;;28.48;6.00;;;27.80;66.50;;;28.83;42.06;101601.53;5152588;28;20055;-85
2022/06/11 10:50:52;;;;;;;32.28;6.65;;;27.80;66.40;;;28.71;42.38;101607.25;5153450;28;20130;-84
2022/06/11 10:53:30;;;;;;;22.35;4.93;;;27.70;66.90;;;28.44;43.57;101608.00;5154209;28;20046;-84
2022/06/11 10:56:10;;;;;;;20.00;5.93;;;27.50;67.70;;;28.06;44.85;101601.78;5146342;28;20502;-84
2022/06/11 10:58:47;;;;;;;23.55;5.70;;;27.30;69.10;;;27.68;46.50;101600.91;5153818;28;20420;-85
2022/06/11 11:01:26;;;;;;;11.57;3.42;;;27.00;70.40;;;27.35;47.65;101607.00;5154306;28;20141;-85
2022/06/11 11:04:27;;;;;;;14.50;3.80;;;26.70;71.60;;;27.06;49.11;101603.16;5143419;28;20043;-82